createdAt,value
2022-10-18T00:01:08.850Z,102104.47
2022-10-18T00:06:12.107Z,102096.34
2022-10-18T00:08:40.491Z,102100.75
2022-10-18T00:11:08.659Z,102099.03
2022-10-18T00:13:37.509Z,102099.03
2022-10-18T00:16:12.974Z,102097.16
2022-10-18T00:18:41.845Z,102096.34
2022-10-18T00:21:18.687Z,102091.00
2022-10-18T00:23:48.419Z,102089.34
2022-10-18T00:26:19.680Z,102072.38
2022-10-18T00:28:53.355Z,102074.25
2022-10-18T00:31:24.808Z,102079.69
2022-10-18T00:33:55.547Z,102075.28
2022-10-18T00:36:24.958Z,102081.44
2022-10-18T00:38:53.916Z,102067.13
2022-10-18T00:41:25.918Z,102071.66
2022-10-18T00:43:57.357Z,102068.94
2022-10-18T00:46:33.330Z,102071.41
2022-10-18T00:49:05.949Z,102067.91
2022-10-18T00:51:41.938Z,102072.38
2022-10-18T00:54:12.167Z,102074.13
2022-10-18T00:56:40.638Z,102068.88
2022-10-18T00:59:09.131Z,102065.28
2022-10-18T01:01:38.565Z,102071.63
2022-10-18T01:04:07.136Z,102064.31
2022-10-18T01:06:42.585Z,102060.28
2022-10-18T01:09:26.387Z,102070.25
2022-10-18T01:12:33.315Z,102058.44
2022-10-18T01:15:04.438Z,102059.56
2022-10-18T01:18:16.227Z,102058.69
2022-10-18T01:21:02.946Z,102060.50
2022-10-18T01:24:04.727Z,102056.03
2022-10-18T01:27:14.937Z,102050.78
2022-10-18T01:29:43.122Z,102046.16
2022-10-18T01:32:21.810Z,102042.50
2022-10-18T01:34:53.431Z,102047.13
2022-10-18T01:37:23.089Z,102050.56
2022-10-18T01:39:54.927Z,102040.66
2022-10-18T01:42:23.398Z,102039.00
2022-10-18T01:44:53.207Z,102035.31
2022-10-18T01:47:22.017Z,102033.66
2022-10-18T01:49:50.247Z,102028.31
2022-10-18T01:52:18.666Z,102025.78
2022-10-18T01:54:49.507Z,102022.88
2022-10-18T01:57:38.207Z,102023.19
2022-10-18T02:00:06.409Z,102027.69
2022-10-18T02:03:14.231Z,102016.69
2022-10-18T02:06:18.645Z,102022.97
2022-10-18T02:08:58.397Z,102023.19
2022-10-18T02:11:27.850Z,102019.41
2022-10-18T02:13:59.685Z,102013.34
2022-10-18T02:16:37.228Z,102011.44
2022-10-18T02:19:22.117Z,102004.41
2022-10-18T02:21:50.707Z,102007.13
2022-10-18T02:24:20.227Z,102010.75
2022-10-18T02:26:48.598Z,101996.63
2022-10-18T02:29:16.929Z,101996.22
2022-10-18T02:31:47.819Z,102005.28
2022-10-18T02:34:42.729Z,101999.13
2022-10-18T02:37:12.774Z,101991.22
2022-10-18T02:39:46.278Z,101989.41
2022-10-18T02:42:15.471Z,101987.75
2022-10-18T02:44:44.087Z,101978.03
2022-10-18T02:47:13.175Z,101981.75
2022-10-18T02:49:41.597Z,101982.41
2022-10-18T02:52:09.827Z,101983.69
2022-10-18T02:54:38.411Z,101978.72
2022-10-18T02:57:06.567Z,101977.16
2022-10-18T02:59:35.590Z,101979.72
2022-10-18T03:02:03.907Z,101980.50
2022-10-18T03:04:32.350Z,101978.44
2022-10-18T03:07:00.526Z,101980.50
2022-10-18T03:09:28.937Z,101974.34
2022-10-18T03:11:57.395Z,101974.09
2022-10-18T03:14:25.738Z,101983.19
2022-10-18T03:16:53.878Z,101987.75
2022-10-18T03:19:25.265Z,101985.13
2022-10-18T03:21:53.598Z,101981.69
2022-10-18T03:24:22.220Z,101989.75
2022-10-18T03:26:50.578Z,101990.88
2022-10-18T03:29:18.937Z,101989.09
2022-10-18T03:31:47.082Z,101991.06
2022-10-18T03:34:17.157Z,101992.81
2022-10-18T03:36:45.376Z,101992.88
2022-10-18T03:39:14.051Z,101992.88
2022-10-18T03:41:42.289Z,101994.66
2022-10-18T03:44:10.781Z,101990.44
2022-10-18T03:46:38.938Z,101986.03
2022-10-18T03:49:07.377Z,101989.63
2022-10-18T03:51:35.638Z,101985.00
2022-10-18T03:54:04.307Z,101987.94
2022-10-18T03:56:33.460Z,101990.66
2022-10-18T03:59:03.108Z,101991.44
2022-10-18T04:01:31.720Z,101988.94
2022-10-18T04:04:00.241Z,101994.06
2022-10-18T04:06:28.437Z,101987.97
2022-10-18T04:08:57.012Z,101988.06
2022-10-18T04:11:25.410Z,101988.06
2022-10-18T04:13:53.879Z,101990.66
2022-10-18T04:16:22.077Z,101987.06
2022-10-18T04:18:50.478Z,101988.13
2022-10-18T04:21:18.667Z,101989.72
2022-10-18T04:23:51.281Z,101980.84
2022-10-18T04:26:19.479Z,101979.03
2022-10-18T04:28:48.083Z,101974.63
2022-10-18T04:31:16.398Z,101981.72
2022-10-18T04:33:44.938Z,101976.38
2022-10-18T04:36:13.578Z,101971.59
2022-10-18T04:38:42.078Z,101980.59
2022-10-18T04:41:10.196Z,101983.38
2022-10-18T04:43:38.648Z,101978.03
2022-10-18T04:46:06.934Z,101978.63
2022-10-18T04:48:35.339Z,101979.97
2022-10-18T04:51:03.689Z,101976.50
2022-10-18T04:53:33.084Z,101975.78
2022-10-18T04:56:01.469Z,101980.28
2022-10-18T04:58:30.009Z,101978.47
2022-10-18T05:00:58.326Z,101966.09
2022-10-18T05:03:26.791Z,101972.41
2022-10-18T05:06:01.875Z,101975.03
2022-10-18T05:08:33.164Z,101976.00
2022-10-18T05:11:02.270Z,101974.16
2022-10-18T05:14:20.807Z,101970.97
2022-10-18T05:16:49.134Z,101960.59
2022-10-18T05:19:17.668Z,101964.13
2022-10-18T05:21:46.519Z,101968.38
2022-10-18T05:24:14.887Z,101968.66
2022-10-18T05:26:43.157Z,101967.06
2022-10-18T05:29:11.782Z,101973.28
2022-10-18T05:32:29.998Z,101976.69
2022-10-18T05:35:26.992Z,101972.25
2022-10-18T05:38:05.179Z,101980.22
2022-10-18T05:40:39.720Z,101974.00
2022-10-18T05:43:08.054Z,101979.41
2022-10-18T05:45:36.579Z,101987.34
2022-10-18T05:48:05.761Z,101986.38
2022-10-18T05:50:36.744Z,101982.22
2022-10-18T05:53:12.256Z,101980.47
2022-10-18T05:55:46.960Z,101978.72
2022-10-18T05:58:15.230Z,101987.28
2022-10-18T06:00:43.983Z,101986.84
2022-10-18T06:03:12.351Z,101999.28
2022-10-18T06:05:40.943Z,102000.56
2022-10-18T06:08:10.661Z,101995.66
2022-10-18T06:10:41.224Z,101988.06
2022-10-18T06:13:10.363Z,101993.59
2022-10-18T06:15:39.105Z,101997.25
2022-10-18T06:18:08.381Z,102000.66
2022-10-18T06:20:37.171Z,101999.88
2022-10-18T06:23:05.481Z,102002.88
2022-10-18T06:25:34.168Z,101990.03
2022-10-18T06:28:07.935Z,101990.94
2022-10-18T06:30:39.031Z,101985.72
2022-10-18T06:33:07.360Z,101990.78
2022-10-18T06:35:35.923Z,101998.91
2022-10-18T06:38:04.623Z,102000.75
2022-10-18T06:40:38.346Z,102006.97
2022-10-18T06:43:20.102Z,101998.03
2022-10-18T06:45:50.791Z,102003.00
2022-10-18T06:50:58.872Z,102002.28
2022-10-18T06:53:30.847Z,101997.88
2022-10-18T06:56:01.800Z,102000.25
2022-10-18T06:58:31.795Z,102003.22
2022-10-18T07:01:00.494Z,102002.50
2022-10-18T07:03:29.821Z,102006.16
2022-10-18T07:06:03.133Z,102007.91
2022-10-18T07:08:32.045Z,102015.03
2022-10-18T07:11:00.901Z,102014.13
2022-10-18T07:13:33.881Z,102015.81
2022-10-18T07:16:06.202Z,102023.66
2022-10-18T07:18:35.931Z,102019.25
2022-10-18T07:21:06.237Z,102022.72
2022-10-18T07:23:36.648Z,102020.16
2022-10-18T07:26:16.338Z,102014.00
2022-10-18T07:28:47.130Z,102014.81
2022-10-18T07:31:16.867Z,102008.38
2022-10-18T07:33:45.238Z,102011.94
2022-10-18T07:36:14.217Z,102007.75
2022-10-18T07:38:42.617Z,102018.69
2022-10-18T07:41:13.741Z,102017.06
2022-10-18T07:43:44.817Z,102014.50
2022-10-18T07:46:15.368Z,102015.53
2022-10-18T07:48:44.086Z,102014.41
2022-10-18T07:51:13.437Z,102006.59
2022-10-18T07:53:41.949Z,102008.22
2022-10-18T07:56:16.609Z,102004.53
2022-10-18T07:58:47.342Z,101999.97
2022-10-18T08:01:16.371Z,102007.94
2022-10-18T08:03:44.807Z,101999.97
2022-10-18T08:06:16.498Z,102012.94
2022-10-18T08:08:45.750Z,102010.16
2022-10-18T08:11:15.667Z,102012.72
2022-10-18T08:13:44.247Z,102009.88
2022-10-18T08:19:01.914Z,102005.53
2022-10-18T08:21:31.035Z,102013.09
2022-10-18T08:23:59.745Z,102009.91
2022-10-18T08:26:28.787Z,102010.97
2022-10-18T08:29:17.531Z,102015.25
2022-10-18T08:31:45.725Z,102020.13
2022-10-18T08:34:18.691Z,102016.66
2022-10-18T08:36:48.466Z,102021.84
2022-10-18T08:39:16.980Z,102015.09
2022-10-18T08:42:15.448Z,102013.91
2022-10-18T08:44:51.880Z,102013.00
2022-10-18T08:47:23.877Z,102013.00
2022-10-18T08:49:59.057Z,102014.75
2022-10-18T08:52:36.438Z,102018.66
2022-10-18T08:55:29.348Z,102006.16
2022-10-18T08:57:58.751Z,101997.31
2022-10-18T09:00:35.013Z,102008.28
2022-10-18T09:03:22.165Z,102006.16
2022-10-18T09:05:56.393Z,102001.63
2022-10-18T09:08:28.031Z,102004.00
2022-10-18T09:11:35.069Z,101999.38
2022-10-18T09:14:35.867Z,101997.47
2022-10-18T09:17:23.099Z,101989.19
2022-10-18T09:20:12.207Z,101987.94
2022-10-18T09:22:54.429Z,101994.16
2022-10-18T09:25:26.432Z,101983.03
2022-10-18T09:28:14.361Z,101984.31
2022-10-18T09:30:42.949Z,101983.63
2022-10-18T09:33:39.862Z,101971.09
2022-10-18T09:36:10.867Z,101979.28
2022-10-18T09:39:09.430Z,101971.59
2022-10-18T09:42:02.570Z,101972.06
2022-10-18T09:44:36.619Z,101970.06
2022-10-18T09:47:28.100Z,101971.06
2022-10-18T09:50:03.778Z,101970.34
2022-10-18T09:52:41.959Z,101959.38
2022-10-18T09:55:18.076Z,101961.63
2022-10-18T09:57:52.783Z,101953.53
2022-10-18T10:00:32.144Z,101944.22
2022-10-18T10:03:02.281Z,101949.78
2022-10-18T10:05:30.694Z,101947.03
2022-10-18T10:08:02.830Z,101936.56
2022-10-18T10:10:32.347Z,101936.56
2022-10-18T10:13:17.277Z,101938.44
2022-10-18T10:15:57.906Z,101935.41
2022-10-18T10:18:35.052Z,101935.31
2022-10-18T10:21:08.271Z,101932.41
2022-10-18T10:23:39.261Z,101930.97
2022-10-18T10:26:21.251Z,101925.56
2022-10-18T10:28:50.265Z,101925.63
2022-10-18T10:31:24.658Z,101919.59
2022-10-18T10:34:07.053Z,101913.28
2022-10-18T10:36:53.431Z,101920.16
2022-10-18T10:39:24.732Z,101918.28
2022-10-18T10:41:58.644Z,101917.34
2022-10-18T10:44:33.790Z,101910.13
2022-10-18T10:47:04.742Z,101906.50
2022-10-18T10:49:41.197Z,101897.53
2022-10-18T10:52:27.784Z,101893.19
2022-10-18T10:55:11.276Z,101892.81
2022-10-18T10:57:50.724Z,101878.63
2022-10-18T11:00:39.510Z,101871.00
2022-10-18T11:03:28.669Z,101874.44
2022-10-18T11:06:01.216Z,101871.19
2022-10-18T11:08:36.697Z,101867.09
2022-10-18T11:11:23.145Z,101856.13
2022-10-18T11:14:24.763Z,101857.25
2022-10-18T11:17:14.318Z,101838.28
2022-10-18T11:19:49.142Z,101841.09
2022-10-18T11:22:21.940Z,101829.59
2022-10-18T11:24:50.253Z,101836.22
2022-10-18T11:27:28.838Z,101834.25
2022-10-18T11:30:25.231Z,101825.50
2022-10-18T11:33:16.311Z,101820.06
2022-10-18T11:35:51.509Z,101813.66
2022-10-18T11:38:23.326Z,101810.78
2022-10-18T11:40:52.008Z,101810.06
2022-10-18T11:44:02.607Z,101809.50
2022-10-18T11:47:03.621Z,101792.97
2022-10-18T11:49:44.966Z,101789.66
2022-10-18T11:52:16.350Z,101788.69
2022-10-18T11:54:57.298Z,101783.78
2022-10-18T11:58:13.220Z,101777.53
2022-10-18T12:00:56.522Z,101784.28
2022-10-18T12:03:29.761Z,101775.16
2022-10-18T12:06:05.095Z,101762.13
2022-10-18T12:08:39.241Z,101762.56
2022-10-18T12:11:43.962Z,101755.44
2022-10-18T12:14:26.443Z,101757.19
2022-10-18T12:17:27.886Z,101756.19
2022-10-18T12:19:48.580Z,101747.94
2022-10-18T12:22:23.870Z,101738.63
2022-10-18T12:24:52.830Z,101736.69
2022-10-18T12:27:28.851Z,101730.19
2022-10-18T12:30:04.753Z,101736.56
2022-10-18T12:32:35.785Z,101727.84
2022-10-18T12:35:13.801Z,101727.50
2022-10-18T12:38:00.369Z,101724.34
2022-10-18T12:40:40.783Z,101716.06
2022-10-18T12:43:12.040Z,101722.00
2022-10-18T12:45:56.154Z,101719.41
2022-10-18T12:48:46.062Z,101717.03
2022-10-18T12:51:23.082Z,101710.97
2022-10-18T12:54:00.840Z,101707.72
2022-10-18T12:56:29.167Z,101705.13
2022-10-18T12:59:15.949Z,101703.78
2022-10-18T13:01:53.710Z,101696.47
2022-10-18T13:04:28.622Z,101701.25
2022-10-18T13:07:00.122Z,101701.97
2022-10-18T13:09:31.141Z,101684.50
2022-10-18T13:12:19.406Z,101688.41
2022-10-18T13:15:05.773Z,101683.72
2022-10-18T13:17:52.821Z,101673.34
2022-10-18T13:20:39.670Z,101681.88
2022-10-18T13:23:11.136Z,101683.56
2022-10-18T13:25:55.241Z,101679.75
2022-10-18T13:28:23.551Z,101674.00
2022-10-18T13:31:00.101Z,101668.06
2022-10-18T13:33:40.360Z,101668.16
2022-10-18T13:36:22.730Z,101669.19
2022-10-18T13:38:58.042Z,101669.03
2022-10-18T13:41:34.534Z,101662.72
2022-10-18T13:44:40.590Z,101662.56
2022-10-18T13:47:21.471Z,101660.81
2022-10-18T13:50:03.275Z,101658.56
2022-10-18T13:52:50.684Z,101663.03
2022-10-18T13:55:53.573Z,101663.03
2022-10-18T13:58:48.827Z,101658.28
2022-10-18T14:01:52.758Z,101654.81
2022-10-18T14:04:43.479Z,101653.94
2022-10-18T14:07:12.718Z,101660.81
2022-10-18T14:09:56.112Z,101660.44
2022-10-18T14:12:38.979Z,101658.47
2022-10-18T14:15:21.670Z,101655.59
2022-10-18T14:17:53.181Z,101652.06
2022-10-18T14:20:55.095Z,101652.63
2022-10-18T14:23:36.622Z,101656.25
2022-10-18T14:26:16.962Z,101655.53
2022-10-18T14:28:59.502Z,101652.84
2022-10-18T14:31:28.831Z,101652.94
2022-10-18T14:33:59.071Z,101647.13
2022-10-18T14:36:39.821Z,101652.94
2022-10-18T14:39:23.033Z,101646.16
2022-10-18T14:41:54.578Z,101640.53
2022-10-18T14:44:27.053Z,101641.81
2022-10-18T14:47:15.510Z,101631.41
2022-10-18T14:49:45.348Z,101638.56
2022-10-18T14:52:17.583Z,101629.66
2022-10-18T14:54:46.658Z,101627.31
2022-10-18T14:57:28.963Z,101636.16
2022-10-18T15:00:02.149Z,101628.09
2022-10-18T15:02:33.882Z,101638.50
2022-10-18T15:05:19.779Z,101629.06
2022-10-18T15:07:49.759Z,101627.47
2022-10-18T15:10:24.987Z,101622.25
2022-10-18T15:13:10.521Z,101624.06
2022-10-18T15:15:39.917Z,101623.28
2022-10-18T15:18:08.643Z,101623.91
2022-10-18T15:20:42.903Z,101621.00
2022-10-18T15:23:31.619Z,101618.63
2022-10-18T15:26:07.661Z,101611.28
2022-10-18T15:28:50.715Z,101618.56
2022-10-18T15:31:26.711Z,101608.69
2022-10-18T15:34:09.073Z,101611.59
2022-10-18T15:36:39.557Z,101608.91
2022-10-18T15:39:21.857Z,101609.22
2022-10-18T15:41:59.822Z,101607.34
2022-10-18T15:44:32.479Z,101610.03
2022-10-18T15:47:21.375Z,101602.75
2022-10-18T15:49:55.643Z,101602.03
2022-10-18T15:52:35.184Z,101603.16
2022-10-18T15:55:55.933Z,101600.56
2022-10-18T15:58:39.480Z,101598.31
2022-10-18T16:01:22.455Z,101592.06
2022-10-18T16:03:51.986Z,101596.97
2022-10-18T16:06:20.581Z,101595.94
2022-10-18T16:08:51.467Z,101601.75
2022-10-18T16:11:22.975Z,101598.28
2022-10-18T16:13:55.171Z,101590.75
2022-10-18T16:16:28.491Z,101593.78
2022-10-18T16:18:57.773Z,101587.41
2022-10-18T16:21:29.337Z,101593.06
2022-10-18T16:23:58.417Z,101586.06
2022-10-18T16:26:28.229Z,101588.19
2022-10-18T16:28:58.185Z,101590.06
2022-10-18T16:31:29.913Z,101592.66
2022-10-18T16:33:58.788Z,101594.56
2022-10-18T16:36:30.091Z,101608.16
2022-10-18T16:39:01.083Z,101606.28
2022-10-18T16:41:29.669Z,101600.91
2022-10-18T16:43:58.031Z,101608.16
2022-10-18T16:46:29.311Z,101608.16
2022-10-18T16:48:58.573Z,101613.53
2022-10-18T16:51:27.667Z,101613.16
2022-10-18T16:53:56.323Z,101610.41
2022-10-18T16:56:27.568Z,101622.53
2022-10-18T16:58:55.806Z,101620.44
2022-10-18T17:01:25.247Z,101624.16
2022-10-18T17:03:54.071Z,101626.06
2022-10-18T17:06:31.526Z,101634.16
2022-10-18T17:09:00.198Z,101636.16
2022-10-18T17:11:29.074Z,101630.44
2022-10-18T17:13:57.552Z,101637.34
2022-10-18T17:16:34.198Z,101642.97
2022-10-18T17:19:05.629Z,101648.41
2022-10-18T17:21:34.739Z,101643.34
2022-10-18T17:24:04.574Z,101641.28
2022-10-18T17:26:34.355Z,101643.00
2022-10-18T17:29:05.619Z,101638.88
2022-10-18T17:31:35.872Z,101644.91
2022-10-18T17:34:04.683Z,101642.66
2022-10-18T17:36:34.207Z,101646.19
2022-10-18T17:39:02.866Z,101644.66
2022-10-18T17:41:31.465Z,101651.03
2022-10-18T17:43:59.949Z,101653.91
2022-10-18T17:46:28.462Z,101652.97
2022-10-18T17:48:56.913Z,101651.34
2022-10-18T17:51:25.442Z,101653.31
2022-10-18T17:53:54.554Z,101649.81
2022-10-18T17:56:23.207Z,101649.13
2022-10-18T17:58:52.511Z,101649.97
2022-10-18T18:01:23.323Z,101656.34
2022-10-18T18:04:00.169Z,101659.91
2022-10-18T18:06:34.067Z,101666.03
2022-10-18T18:09:15.451Z,101661.84
2022-10-18T18:11:48.453Z,101661.53
2022-10-18T18:14:16.849Z,101661.66
2022-10-18T18:16:47.171Z,101665.88
2022-10-18T18:19:16.241Z,101668.00
2022-10-18T18:21:45.168Z,101669.94
2022-10-18T18:24:14.309Z,101664.16
2022-10-18T18:26:43.611Z,101666.63
2022-10-18T18:29:13.052Z,101664.31
2022-10-18T18:31:44.052Z,101661.78
2022-10-18T18:34:12.984Z,101662.59
2022-10-18T18:36:41.750Z,101672.56
2022-10-18T18:39:21.553Z,101664.88
2022-10-18T18:41:52.508Z,101659.22
2022-10-18T18:44:22.001Z,101670.88
2022-10-18T18:46:50.711Z,101666.03
2022-10-18T18:49:19.073Z,101666.47
2022-10-18T18:51:47.607Z,101667.25
2022-10-18T18:54:16.507Z,101660.22
2022-10-18T18:56:45.209Z,101669.00
2022-10-18T18:59:14.550Z,101659.50
2022-10-18T19:01:43.470Z,101656.00
2022-10-18T19:04:12.248Z,101658.56
2022-10-18T19:06:43.203Z,101649.59
2022-10-18T19:09:20.220Z,101654.00
2022-10-18T19:11:54.020Z,101656.06
2022-10-18T19:14:25.492Z,101659.19
2022-10-18T19:16:59.074Z,101654.44
2022-10-18T19:19:31.289Z,101647.47
2022-10-18T19:22:02.348Z,101650.66
2022-10-18T19:24:31.839Z,101648.22
2022-10-18T19:27:03.989Z,101654.56
2022-10-18T19:29:35.597Z,101652.84
2022-10-18T19:32:12.718Z,101655.84
2022-10-18T19:34:42.389Z,101647.75
2022-10-18T19:37:13.588Z,101660.72
2022-10-18T19:39:42.988Z,101662.34
2022-10-18T19:42:16.012Z,101669.81
2022-10-18T19:44:48.008Z,101664.88
2022-10-18T19:47:18.115Z,101660.72
2022-10-18T19:49:46.886Z,101655.78
2022-10-18T19:52:16.100Z,101659.72
2022-10-18T19:54:45.706Z,101657.00
2022-10-18T19:57:15.175Z,101654.44
2022-10-18T19:59:44.391Z,101650.34
2022-10-18T20:02:16.150Z,101656.31
2022-10-18T20:04:44.898Z,101661.75
2022-10-18T20:07:13.809Z,101664.28
2022-10-18T20:09:42.560Z,101666.06
2022-10-18T20:12:11.650Z,101661.41
2022-10-18T20:14:42.808Z,101663.63
2022-10-18T20:17:14.020Z,101672.34
2022-10-18T20:19:43.265Z,101673.38
2022-10-18T20:22:12.431Z,101672.22
2022-10-18T20:24:41.294Z,101668.75
2022-10-18T20:27:10.106Z,101668.75
2022-10-18T20:29:38.818Z,101671.69
2022-10-18T20:32:08.999Z,101671.25
2022-10-18T20:34:37.662Z,101662.91
2022-10-18T20:37:06.530Z,101668.31
2022-10-18T20:39:35.400Z,101674.72
2022-10-18T20:42:04.378Z,101667.63
2022-10-18T20:44:34.075Z,101673.44
2022-10-18T20:47:02.604Z,101670.19
2022-10-18T20:49:30.843Z,101671.63
2022-10-18T20:51:59.259Z,101676.66
2022-10-18T20:54:27.574Z,101665.22
2022-10-18T20:56:55.880Z,101666.81
2022-10-18T20:59:24.139Z,101662.59
2022-10-18T21:01:52.723Z,101659.81
2022-10-18T21:04:21.510Z,101655.38
2022-10-18T21:06:50.115Z,101658.13
2022-10-18T21:09:20.402Z,101660.72
2022-10-18T21:11:51.288Z,101657.13
2022-10-18T21:14:21.643Z,101655.38
2022-10-18T21:16:51.899Z,101662.47
2022-10-18T21:19:29.341Z,101656.19
2022-10-18T21:21:58.575Z,101657.25
2022-10-18T21:24:27.184Z,101657.25
2022-10-18T21:26:56.513Z,101649.09
2022-10-18T21:29:25.224Z,101649.09
2022-10-18T21:31:55.665Z,101652.41
2022-10-18T21:34:24.103Z,101647.22
2022-10-18T21:36:52.733Z,101653.50
2022-10-18T21:41:53.264Z,101638.47
2022-10-18T21:44:21.904Z,101638.41
2022-10-18T21:46:50.967Z,101639.34
2022-10-18T21:49:19.679Z,101634.91
2022-10-18T21:51:48.202Z,101635.97
2022-10-18T21:54:17.612Z,101641.34
2022-10-18T21:56:46.256Z,101640.28
2022-10-18T21:59:14.588Z,101638.66
2022-10-18T22:01:44.829Z,101634.25
2022-10-18T22:04:27.265Z,101637.97
2022-10-18T22:06:55.809Z,101640.47
2022-10-18T22:09:24.267Z,101637.72
2022-10-18T22:11:54.133Z,101634.13
2022-10-18T22:14:23.167Z,101628.75
2022-10-18T22:16:52.155Z,101626.16
2022-10-18T22:19:20.641Z,101622.75
2022-10-18T22:21:49.658Z,101620.06
2022-10-18T22:24:17.868Z,101614.78
2022-10-18T22:26:47.238Z,101614.84
2022-10-18T22:29:18.257Z,101610.97
2022-10-18T22:31:52.324Z,101605.50
2022-10-18T22:34:24.310Z,101605.75
2022-10-18T22:36:53.126Z,101613.72
2022-10-18T22:39:21.907Z,101612.03
2022-10-18T22:41:56.000Z,101610.97
2022-10-18T22:44:24.453Z,101606.69
2022-10-18T22:46:53.132Z,101604.94
2022-10-18T22:49:21.717Z,101609.22
2022-10-18T22:51:50.307Z,101606.56
2022-10-18T22:54:18.658Z,101611.16
2022-10-18T22:56:47.161Z,101609.50
2022-10-18T22:59:15.436Z,101601.63
2022-10-18T23:01:43.832Z,101605.88
2022-10-18T23:04:12.234Z,101604.16
2022-10-18T23:06:41.234Z,101603.31
2022-10-18T23:09:11.183Z,101604.44
2022-10-18T23:11:39.703Z,101600.84
2022-10-18T23:14:08.133Z,101600.84
2022-10-18T23:16:36.674Z,101602.44
2022-10-18T23:19:05.009Z,101598.28
2022-10-18T23:21:34.434Z,101600.91
2022-10-18T23:24:03.635Z,101599.22
2022-10-18T23:26:32.694Z,101596.63
2022-10-18T23:29:01.248Z,101594.84
2022-10-18T23:31:33.178Z,101591.25
2022-10-18T23:34:04.786Z,101595.72
2022-10-18T23:36:34.395Z,101598.34
2022-10-18T23:39:04.055Z,101584.03
2022-10-18T23:41:32.932Z,101588.47
2022-10-18T23:44:02.556Z,101588.59
2022-10-18T23:46:31.177Z,101587.69
2022-10-18T23:48:59.448Z,101585.13
2022-10-18T23:51:28.314Z,101593.97
2022-10-18T23:53:56.514Z,101589.47
2022-10-18T23:56:25.153Z,101593.03
2022-10-18T23:58:53.313Z,101590.50
